Portada
METAR-TAF:

METAR-TAF

Aeropuertos :

Aeropuerto de Houma

Houma, Luisiana, Estados Unidos

latitud: 29-34N, longitud: 090-40W, altitud: 3 m

Observación

El informe se hizo hace 1 hora y 6 minutos, a las 20:50 UTC
Viento 9 kt del sur-sureste con ráfagas de 16 kt
Temperatura 23°C
Humedad 47%
Presión 1016 hPa
Visibilidad: 11.3 km
Nubes dispersas a una altura de 4800 ft

METAR: KHUM 022050Z 15009G16KT 7SM SCT048 23/11 A3000

Hora: 16:56 (21:56 UTC)

Pronóstico

El informe se hizo hace 4 horas y 26 minutos, a las 17:30 UTC
Pronóstico válido del 02 a las 18 UTC al 03 a las 18 UTC
Viento 10 kt del noreste
Visibilidad: 10 km
Nubes dispersas a una altura de 4000 ft

TAF: KHUM 021730Z 0218/0318 05010KT P6SM SCT040

Observaciones y pronósticos meteorológicos de más de 4000 aeropuertos (mensajes METAR y TAF).

Los puntos amarillos y rojos representan las estaciones disponibles.

Ponga el ratón en el punto deseado para ver el nombre de la estación.

Haga clic para ver las observaciones y los pronósticos meteorológicos.

Para cambiar el mapa : haga clic en los botones verdes con una cruz de color negro para hacer un zoom, en el botón verde con un guión para alejar o en las flechas verdes para mapas adyacentes.


METAR-TAF: